Time;durP1;ratioP1;P1;durP2;ratioP2;P2;SDS_P1;SDS_P2;PMS_P1;PMS_P2;Temp;Humidity;BMP_temperature;BMP_pressure;BME280_temperature;BME280_humidity;BME280_pressure;Samples;Min_cycle;Max_cycle;Signal;HPM_P1;HPM_P2
2021/11/06 00:01:49;;;;;;;6.67;3.23;;;6.50;99.10;;;;;;5036874;28;20646;-79
2021/11/06 00:04:15;;;;;;;1.23;1.17;;;6.50;99.10;;;;;;5036740;28;20413;-79
2021/11/06 00:06:44;;;;;;;2.73;1.70;;;6.50;99.10;;;;;;5036682;28;20405;-79
2021/11/06 00:09:12;;;;;;;3.00;1.70;;;6.50;99.10;;;;;;5036974;28;20447;-79
2021/11/06 00:11:39;;;;;;;6.15;2.55;;;6.40;99.10;;;;;;5036159;28;20412;-79
2021/11/06 00:14:04;;;;;;;4.18;3.05;;;6.40;99.10;;;;;;5036684;28;20188;-80
2021/11/06 00:16:30;;;;;;;2.70;1.90;;;6.40;99.10;;;;;;5036490;28;20658;-79
2021/11/06 00:18:56;;;;;;;5.83;1.93;;;6.30;99.10;;;;;;5036127;28;20240;-79
2021/11/06 00:21:22;;;;;;;6.03;2.27;;;6.30;99.10;;;;;;5036101;28;20638;-79
2021/11/06 00:23:48;;;;;;;8.27;2.73;;;6.20;99.10;;;;;;5037973;28;20405;-79
2021/11/06 00:26:13;;;;;;;3.53;2.87;;;6.20;99.10;;;;;;5035465;28;20443;-79
2021/11/06 00:28:39;;;;;;;1.97;1.50;;;6.10;99.10;;;;;;5036193;28;20820;-79
2021/11/06 00:31:05;;;;;;;4.23;2.57;;;6.20;99.10;;;;;;5036275;28;20416;-79
2021/11/06 00:33:31;;;;;;;4.63;2.57;;;6.20;99.10;;;;;;5036517;28;20499;-79
2021/11/06 00:35:57;;;;;;;3.17;1.53;;;6.20;99.10;;;;;;5036684;28;20412;-79
2021/11/06 00:38:22;;;;;;;5.80;3.43;;;6.20;99.10;;;;;;5036536;28;20464;-79
2021/11/06 00:40:48;;;;;;;4.77;2.00;;;6.20;99.10;;;;;;5036848;28;20405;-79
2021/11/06 00:43:14;;;;;;;4.53;2.20;;;6.20;99.10;;;;;;5036644;28;20409;-79
2021/11/06 00:45:40;;;;;;;5.00;2.20;;;6.30;99.10;;;;;;5038371;28;20511;-79
2021/11/06 00:48:06;;;;;;;6.80;2.78;;;6.30;99.10;;;;;;5036242;28;20194;-79
2021/11/06 00:50:32;;;;;;;4.67;2.00;;;6.40;99.10;;;;;;5036328;28;20622;-79
2021/11/06 00:52:59;;;;;;;4.20;2.60;;;6.40;99.10;;;;;;5036241;28;20404;-79
2021/11/06 00:55:24;;;;;;;6.57;2.13;;;6.40;99.10;;;;;;5035752;28;20194;-79
2021/11/06 00:57:51;;;;;;;4.37;3.03;;;6.50;99.10;;;;;;5035560;28;20212;-79
2021/11/06 01:00:18;;;;;;;10.27;2.55;;;6.50;99.10;;;;;;5034798;28;20401;-79
2021/11/06 01:02:44;;;;;;;6.93;1.85;;;6.50;99.10;;;;;;5034909;28;20177;-79
2021/11/06 01:05:12;;;;;;;10.10;3.03;;;6.50;99.10;;;;;;5035722;28;20178;-79
2021/11/06 01:07:38;;;;;;;7.28;5.22;;;6.60;99.10;;;;;;5035663;28;20440;-79
2021/11/06 01:10:06;;;;;;;6.45;2.88;;;6.60;99.10;;;;;;5035453;28;20196;-79
2021/11/06 01:12:32;;;;;;;7.40;3.63;;;6.50;99.10;;;;;;5034535;28;20602;-79
2021/11/06 01:14:58;;;;;;;5.20;3.45;;;6.50;99.10;;;;;;5034201;28;20197;-79
2021/11/06 01:17:24;;;;;;;9.20;2.95;;;6.50;99.10;;;;;;5035505;28;20212;-79
2021/11/06 01:19:50;;;;;;;11.30;4.30;;;6.50;99.10;;;;;;5035439;28;20537;-79
2021/11/06 01:22:16;;;;;;;5.53;1.93;;;6.60;99.10;;;;;;5035409;28;20503;-79
2021/11/06 01:24:42;;;;;;;2.55;1.70;;;6.60;99.10;;;;;;5034469;28;20912;-79
2021/11/06 01:27:10;;;;;;;3.70;2.27;;;6.60;99.10;;;;;;5034650;28;20181;-79
2021/11/06 01:29:37;;;;;;;10.32;3.28;;;6.40;99.10;;;;;;5035098;28;20409;-79
2021/11/06 01:32:06;;;;;;;9.30;3.00;;;6.40;99.10;;;;;;5035026;28;20178;-79
2021/11/06 01:34:32;;;;;;;14.13;3.03;;;6.40;99.10;;;;;;5035024;28;20177;-79
2021/11/06 01:36:58;;;;;;;7.32;3.65;;;6.40;99.10;;;;;;5034975;28;20181;-79
2021/11/06 01:39:24;;;;;;;4.53;3.30;;;6.50;99.10;;;;;;5035672;28;20170;-79
2021/11/06 01:41:49;;;;;;;12.37;3.73;;;6.50;99.10;;;;;;5035607;28;20436;-79
2021/11/06 01:44:15;;;;;;;6.87;2.83;;;6.50;99.10;;;;;;5036180;28;20436;-79
2021/11/06 01:46:41;;;;;;;4.15;3.33;;;6.50;99.10;;;;;;5093648;22;20584;-80
2021/11/06 01:49:07;;;;;;;3.97;3.47;;;6.40;99.10;;;;;;5015911;28;20609;-80
2021/11/06 01:51:33;;;;;;;4.07;2.00;;;6.40;99.10;;;;;;5015454;28;20178;-80
2021/11/06 01:53:59;;;;;;;6.83;1.27;;;6.30;99.10;;;;;;5016536;28;20752;-80
2021/11/06 01:56:24;;;;;;;4.50;2.07;;;6.20;99.10;;;;;;5016301;28;20497;-80
2021/11/06 01:58:51;;;;;;;6.33;4.33;;;6.10;99.10;;;;;;5015740;28;20242;-80
2021/11/06 02:01:17;;;;;;;3.67;2.08;;;6.10;99.10;;;;;;5015853;28;20440;-80
2021/11/06 02:03:45;;;;;;;1.13;1.02;;;6.00;99.10;;;;;;5016525;28;20190;-80
2021/11/06 02:06:11;;;;;;;1.25;1.15;;;6.00;99.10;;;;;;5015469;28;20170;-80
2021/11/06 02:08:37;;;;;;;6.43;3.10;;;5.90;99.10;;;;;;5014757;28;20569;-80
2021/11/06 02:11:05;;;;;;;5.43;1.50;;;5.90;99.10;;;;;;5016144;28;20226;-80
2021/11/06 02:13:31;;;;;;;1.42;1.25;;;5.90;99.10;;;;;;5015297;28;20175;-80
2021/11/06 02:15:57;;;;;;;2.65;2.47;;;5.80;99.10;;;;;;5014533;28;20175;-80
2021/11/06 02:18:23;;;;;;;3.35;2.30;;;5.80;99.10;;;;;;5015276;28;20210;-80
2021/11/06 02:21:01;;;;;;;7.13;2.30;;;5.80;99.10;;;;;;5014890;28;20205;-79
2021/11/06 02:23:27;;;;;;;4.25;2.05;;;5.70;99.10;;;;;;5015203;28;20420;-80
2021/11/06 02:25:53;;;;;;;1.80;1.70;;;5.80;99.10;;;;;;5014899;28;20178;-80
2021/11/06 02:28:19;;;;;;;6.87;3.67;;;5.80;99.10;;;;;;5015124;28;20626;-81
2021/11/06 02:30:45;;;;;;;1.50;1.40;;;5.80;99.10;;;;;;5015515;28;20489;-80
2021/11/06 02:33:11;;;;;;;1.57;1.47;;;5.80;99.10;;;;;;5015083;28;20425;-80
2021/11/06 02:35:38;;;;;;;2.88;1.58;;;5.80;99.10;;;;;;5015319;28;20457;-80
2021/11/06 02:38:04;;;;;;;0.90;0.83;;;5.80;99.10;;;;;;5014832;28;20210;-80
2021/11/06 02:40:30;;;;;;;1.58;1.10;;;5.60;99.10;;;;;;5014980;28;20532;-80
2021/11/06 02:42:55;;;;;;;6.00;1.80;;;5.60;99.10;;;;;;5015273;28;20265;-80
2021/11/06 02:45:21;;;;;;;1.70;1.23;;;5.60;99.10;;;;;;5014489;28;20186;-80
2021/11/06 02:47:49;;;;;;;9.40;1.33;;;5.50;99.10;;;;;;5015117;28;20438;-80
2021/11/06 02:50:15;;;;;;;2.80;1.63;;;5.50;99.10;;;;;;5014004;28;20420;-80
2021/11/06 02:52:42;;;;;;;1.48;1.38;;;5.40;99.10;;;;;;5014398;28;20182;-81
2021/11/06 02:55:09;;;;;;;2.03;1.35;;;5.40;99.10;;;;;;5014715;28;20635;-81
2021/11/06 02:57:34;;;;;;;2.45;2.25;;;5.40;99.10;;;;;;5014444;28;20206;-81
2021/11/06 03:00:00;;;;;;;6.57;3.03;;;5.50;99.10;;;;;;5014322;28;20201;-80
2021/11/06 03:02:26;;;;;;;3.97;1.10;;;5.50;99.10;;;;;;5014447;28;20453;-79
2021/11/06 03:04:53;;;;;;;4.43;1.83;;;5.60;99.10;;;;;;5014671;28;20412;-80
2021/11/06 03:07:19;;;;;;;10.18;3.15;;;5.60;99.10;;;;;;5014141;28;20205;-80
2021/11/06 03:09:45;;;;;;;1.60;1.50;;;5.60;99.10;;;;;;5014436;28;20579;-80
2021/11/06 03:12:14;;;;;;;3.97;1.67;;;5.70;99.10;;;;;;5014299;28;20179;-80
2021/11/06 03:14:42;;;;;;;3.80;1.73;;;5.70;99.10;;;;;;5013726;28;20212;-81
2021/11/06 03:17:08;;;;;;;1.45;1.20;;;5.70;99.10;;;;;;5013486;28;20671;-80
2021/11/06 03:19:35;;;;;;;1.48;1.20;;;5.70;99.10;;;;;;5014320;28;20178;-82
2021/11/06 03:22:01;;;;;;;8.07;2.00;;;5.70;99.10;;;;;;5014473;28;20178;-80
2021/11/06 03:24:27;;;;;;;12.73;2.30;;;5.70;99.10;;;;;;5014722;28;20206;-80
2021/11/06 03:26:56;;;;;;;3.60;1.88;;;5.60;99.10;;;;;;5018033;28;20185;-81
2021/11/06 03:29:23;;;;;;;1.70;1.60;;;5.60;99.10;;;;;;5018407;28;20179;-80
2021/11/06 03:31:49;;;;;;;2.15;1.60;;;5.50;99.10;;;;;;5017705;28;20206;-80
2021/11/06 03:34:15;;;;;;;1.33;1.23;;;5.50;99.10;;;;;;5017056;28;20193;-81
2021/11/06 03:36:41;;;;;;;3.42;1.17;;;5.40;99.10;;;;;;5017122;28;20525;-81
2021/11/06 03:39:07;;;;;;;2.53;1.85;;;5.50;99.10;;;;;;5017458;28;20701;-81
2021/11/06 03:41:33;;;;;;;1.10;0.88;;;5.50;99.10;;;;;;5017542;28;20186;-81
2021/11/06 03:43:59;;;;;;;1.13;1.00;;;5.40;99.10;;;;;;5016737;28;20178;-81
2021/11/06 03:46:25;;;;;;;2.67;1.50;;;5.40;99.10;;;;;;5017588;28;20441;-81
2021/11/06 03:48:50;;;;;;;6.33;2.10;;;5.30;99.10;;;;;;5018163;28;20441;-80
2021/11/06 03:51:17;;;;;;;2.67;2.47;;;5.40;99.10;;;;;;5017421;28;20451;-81
2021/11/06 03:53:43;;;;;;;3.38;1.15;;;5.30;99.10;;;;;;5017305;28;20753;-81
2021/11/06 03:56:09;;;;;;;1.65;1.55;;;5.30;99.10;;;;;;5018048;28;20178;-81
2021/11/06 03:58:34;;;;;;;1.60;0.90;;;5.40;99.10;;;;;;5017447;28;20248;-81
2021/11/06 04:01:01;;;;;;;1.90;1.80;;;5.40;99.10;;;;;;5017691;28;20464;-80
2021/11/06 04:03:27;;;;;;;2.25;1.30;;;5.30;99.10;;;;;;5016572;28;20209;-80
2021/11/06 04:05:52;;;;;;;3.70;2.33;;;5.30;99.10;;;;;;5016761;28;20178;-80
2021/11/06 04:08:19;;;;;;;8.63;1.90;;;5.30;99.10;;;;;;5016320;28;20471;-80
2021/11/06 04:10:45;;;;;;;1.23;1.13;;;5.30;99.10;;;;;;5016757;28;20762;-80
2021/11/06 04:13:13;;;;;;;1.20;0.85;;;5.40;99.10;;;;;;5017113;28;20182;-80
2021/11/06 04:15:40;;;;;;;2.55;1.00;;;5.30;99.10;;;;;;5017215;28;20237;-80
2021/11/06 04:18:06;;;;;;;1.27;1.17;;;5.10;99.10;;;;;;5017613;28;20245;-80
2021/11/06 04:20:32;;;;;;;1.52;0.90;;;5.10;99.10;;;;;;5017304;28;20253;-80
2021/11/06 04:22:58;;;;;;;1.42;1.05;;;5.10;99.10;;;;;;5016749;28;20170;-80
2021/11/06 04:25:24;;;;;;;2.77;2.57;;;5.10;99.10;;;;;;5016742;28;20533;-80
2021/11/06 04:27:49;;;;;;;2.83;1.37;;;5.10;99.10;;;;;;5016790;28;20536;-80
2021/11/06 04:30:16;;;;;;;3.17;2.07;;;5.10;99.10;;;;;;5017047;28;20413;-81
2021/11/06 04:32:42;;;;;;;3.53;1.77;;;5.10;99.10;;;;;;5017470;28;20421;-81
2021/11/06 04:35:08;;;;;;;1.23;1.17;;;5.10;99.10;;;;;;5016561;28;20205;-81
2021/11/06 04:37:35;;;;;;;2.70;2.50;;;5.20;99.10;;;;;;5015488;28;20210;-81
2021/11/06 04:40:01;;;;;;;5.43;2.40;;;5.20;99.10;;;;;;5016138;28;20171;-80
2021/11/06 04:42:26;;;;;;;6.53;1.73;;;5.20;99.10;;;;;;5016213;28;20185;-79
2021/11/06 04:44:52;;;;;;;0.87;0.80;;;5.20;99.10;;;;;;5015700;28;20425;-80
2021/11/06 04:47:18;;;;;;;2.30;1.33;;;5.20;99.10;;;;;;5016075;28;20442;-80
2021/11/06 04:49:44;;;;;;;4.23;1.63;;;5.30;99.10;;;;;;5016023;28;21013;-79
2021/11/06 04:52:09;;;;;;;2.33;2.17;;;5.30;99.10;;;;;;5016419;28;20428;-80
2021/11/06 04:54:35;;;;;;;1.27;0.90;;;5.30;99.10;;;;;;5016108;28;20178;-80
2021/11/06 04:57:01;;;;;;;4.37;1.33;;;5.30;99.10;;;;;;5015831;28;20431;-80
2021/11/06 04:59:27;;;;;;;1.58;1.50;;;5.30;99.10;;;;;;5017713;28;20453;-81
2021/11/06 05:01:53;;;;;;;0.97;0.87;;;5.20;99.10;;;;;;5016087;28;20177;-80
2021/11/06 05:04:19;;;;;;;1.73;1.60;;;5.20;99.10;;;;;;5016029;28;20421;-80
2021/11/06 05:06:44;;;;;;;1.23;1.07;;;5.20;99.10;;;;;;5015665;28;20170;-80
2021/11/06 05:09:10;;;;;;;1.43;1.33;;;5.10;99.10;;;;;;5015484;28;20198;-80
2021/11/06 05:11:36;;;;;;;9.40;1.43;;;5.10;99.10;;;;;;5015365;28;20219;-80
2021/11/06 05:14:02;;;;;;;3.33;2.20;;;5.10;99.10;;;;;;5015429;28;20421;-80
2021/11/06 05:16:27;;;;;;;1.13;1.10;;;5.10;99.10;;;;;;5015158;28;20174;-80
2021/11/06 05:18:55;;;;;;;12.17;2.57;;;5.10;99.10;;;;;;5015014;28;20846;-80
2021/11/06 05:21:22;;;;;;;3.60;1.05;;;5.20;99.10;;;;;;5015373;28;20170;-80
2021/11/06 05:23:49;;;;;;;3.70;0.93;;;5.10;99.10;;;;;;5015659;28;20178;-80
2021/11/06 05:26:15;;;;;;;1.85;1.25;;;5.20;99.10;;;;;;5014970;28;20171;-80
2021/11/06 05:28:42;;;;;;;1.23;1.15;;;5.20;99.10;;;;;;5014833;28;20617;-80
2021/11/06 05:31:09;;;;;;;8.13;1.80;;;5.10;99.10;;;;;;5014927;28;20200;-80
2021/11/06 05:33:35;;;;;;;3.75;1.58;;;5.10;99.10;;;;;;5014334;28;20178;-80
2021/11/06 05:36:01;;;;;;;3.13;2.83;;;5.10;99.10;;;;;;5015227;28;20263;-80
2021/11/06 05:38:26;;;;;;;2.40;2.20;;;5.10;99.10;;;;;;5014088;28;20465;-80
2021/11/06 05:40:52;;;;;;;3.07;2.10;;;5.00;99.10;;;;;;5014048;28;21021;-80
2021/11/06 05:43:18;;;;;;;4.20;1.60;;;5.00;99.10;;;;;;5014173;28;20269;-80
2021/11/06 05:45:44;;;;;;;1.70;0.80;;;4.90;99.10;;;;;;5014563;28;20244;-80
2021/11/06 05:48:10;;;;;;;2.57;1.83;;;4.90;99.10;;;;;;5013278;28;20548;-80
2021/11/06 05:50:35;;;;;;;3.07;1.00;;;4.80;99.10;;;;;;5014380;28;20417;-80
2021/11/06 05:53:01;;;;;;;5.10;1.77;;;4.80;99.10;;;;;;5014297;28;20457;-80
2021/11/06 05:55:27;;;;;;;1.73;0.80;;;4.70;99.10;;;;;;5014179;28;20774;-80
2021/11/06 05:57:53;;;;;;;2.40;1.10;;;4.70;99.10;;;;;;5012493;28;20465;-79
2021/11/06 06:00:20;;;;;;;1.95;1.05;;;4.60;99.10;;;;;;5013291;28;20487;-80
2021/11/06 06:02:47;;;;;;;0.88;0.77;;;4.60;99.10;;;;;;5014338;28;20181;-80
2021/11/06 06:05:13;;;;;;;2.53;2.03;;;4.50;99.10;;;;;;5014173;28;20202;-79
2021/11/06 06:07:40;;;;;;;0.70;0.60;;;4.40;99.10;;;;;;5014418;28;20201;-80
2021/11/06 06:10:08;;;;;;;1.67;1.10;;;4.40;99.10;;;;;;5013583;28;20420;-80
2021/11/06 06:12:35;;;;;;;1.85;0.85;;;4.30;99.10;;;;;;5012759;28;20175;-80
2021/11/06 06:15:01;;;;;;;4.63;1.17;;;4.40;99.10;;;;;;5014066;28;20174;-80
2021/11/06 06:17:27;;;;;;;0.93;0.82;;;4.40;99.10;;;;;;5013773;28;20206;-80
2021/11/06 06:19:52;;;;;;;2.70;1.03;;;4.40;99.10;;;;;;5014253;28;20178;-80
2021/11/06 06:22:18;;;;;;;1.83;1.50;;;4.40;99.10;;;;;;5014770;28;20273;-80
2021/11/06 06:24:44;;;;;;;2.70;1.10;;;4.30;99.10;;;;;;5013637;28;20241;-80
2021/11/06 06:27:10;;;;;;;1.63;1.13;;;4.40;99.10;;;;;;5013900;28;20441;-80
2021/11/06 06:29:35;;;;;;;2.00;1.33;;;4.40;99.10;;;;;;5013633;28;20444;-80
2021/11/06 06:32:01;;;;;;;0.93;0.87;;;4.40;99.10;;;;;;5014062;28;20413;-80
2021/11/06 06:34:27;;;;;;;0.60;0.50;;;4.40;99.10;;;;;;5014697;28;20957;-80
2021/11/06 06:36:56;;;;;;;9.17;1.73;;;4.40;99.10;;;;;;5014995;28;20414;-80
2021/11/06 06:39:22;;;;;;;1.13;1.02;;;4.40;99.10;;;;;;5014081;28;20515;-80
2021/11/06 06:41:48;;;;;;;2.35;1.58;;;4.30;99.10;;;;;;5013484;28;20198;-80
2021/11/06 06:44:14;;;;;;;4.38;2.17;;;4.30;99.10;;;;;;5013485;28;20229;-79
2021/11/06 06:46:39;;;;;;;6.63;1.43;;;4.30;99.10;;;;;;5013939;28;20190;-80
2021/11/06 06:49:05;;;;;;;0.60;0.50;;;4.40;99.10;;;;;;5014162;28;20525;-80
2021/11/06 06:51:34;;;;;;;3.17;2.40;;;4.40;99.10;;;;;;5014145;28;20178;-80
2021/11/06 06:54:00;;;;;;;8.52;1.17;;;4.50;99.10;;;;;;5013584;28;20444;-80
2021/11/06 06:56:25;;;;;;;1.60;1.50;;;4.50;99.10;;;;;;5013763;28;20647;-81
2021/11/06 06:58:51;;;;;;;4.27;1.67;;;4.60;99.10;;;;;;5013986;28;20202;-81
2021/11/06 07:01:17;;;;;;;0.63;0.60;;;4.60;99.10;;;;;;5018930;28;20941;-84
2021/11/06 07:03:43;;;;;;;1.33;1.20;;;4.60;99.10;;;;;;5017991;28;20701;-84
2021/11/06 07:06:09;;;;;;;2.10;1.17;;;4.60;99.10;;;;;;5019131;28;20413;-83
2021/11/06 07:08:35;;;;;;;3.13;0.97;;;4.70;99.10;;;;;;5020967;28;20198;-84
2021/11/06 07:11:00;;;;;;;1.90;0.67;;;4.70;99.10;;;;;;5019750;28;20417;-81
2021/11/06 07:13:27;;;;;;;1.40;1.00;;;4.70;99.10;;;;;;5019890;28;20178;-83
2021/11/06 07:15:52;;;;;;;2.65;1.80;;;4.70;99.10;;;;;;5020301;28;20499;-83
2021/11/06 07:18:19;;;;;;;1.07;0.97;;;4.70;99.10;;;;;;5019758;28;20206;-83
2021/11/06 07:20:44;;;;;;;2.05;1.30;;;4.70;99.10;;;;;;5019467;28;20428;-82
2021/11/06 07:23:11;;;;;;;9.82;0.93;;;4.80;99.10;;;;;;5019604;28;20171;-81
2021/11/06 07:25:37;;;;;;;3.03;1.73;;;4.80;99.10;;;;;;5020228;28;20645;-81
2021/11/06 07:28:03;;;;;;;0.70;0.63;;;4.80;99.10;;;;;;5018914;28;20221;-82
2021/11/06 07:30:29;;;;;;;4.78;0.93;;;4.80;99.10;;;;;;5019579;28;20178;-83
2021/11/06 07:32:55;;;;;;;1.55;0.70;;;4.90;99.10;;;;;;5019190;28;20181;-84
2021/11/06 07:35:21;;;;;;;9.07;3.33;;;4.90;99.10;;;;;;5019432;28;20174;-83
2021/11/06 07:37:47;;;;;;;6.35;3.38;;;5.00;99.10;;;;;;5018491;28;20228;-83
2021/11/06 07:40:13;;;;;;;2.13;1.90;;;5.10;99.10;;;;;;5019087;28;20261;-83
2021/11/06 07:42:45;;;;;;;3.83;1.90;;;5.10;99.10;;;;;;5018507;28;20178;-84
2021/11/06 07:45:13;;;;;;;1.88;1.80;;;5.10;99.10;;;;;;5020052;28;20273;-83
2021/11/06 07:47:39;;;;;;;2.50;1.20;;;5.20;99.10;;;;;;5018573;28;20257;-79
2021/11/06 07:50:06;;;;;;;4.30;3.00;;;5.30;99.10;;;;;;5018432;28;20182;-80
2021/11/06 07:52:32;;;;;;;1.88;1.67;;;5.30;99.10;;;;;;5018017;28;20710;-82
2021/11/06 07:54:58;;;;;;;2.20;1.92;;;5.30;99.10;;;;;;5018281;28;20209;-82
2021/11/06 07:57:24;;;;;;;2.20;1.37;;;5.30;99.10;;;;;;5018186;28;20209;-82
2021/11/06 07:59:50;;;;;;;5.90;1.27;;;5.20;99.10;;;;;;5017662;28;20437;-81
2021/11/06 08:02:15;;;;;;;1.13;1.03;;;5.20;99.10;;;;;;5017480;28;20414;-81
2021/11/06 08:04:41;;;;;;;1.70;1.10;;;5.30;99.10;;;;;;5018126;28;20402;-81
2021/11/06 08:07:07;;;;;;;1.67;1.63;;;5.30;99.10;;;;;;5017882;28;20409;-81
2021/11/06 08:09:33;;;;;;;1.13;1.03;;;5.30;99.10;;;;;;5018173;28;20433;-81
2021/11/06 08:11:59;;;;;;;1.70;0.60;;;5.30;99.10;;;;;;5016653;28;20934;-82
2021/11/06 08:14:24;;;;;;;0.60;0.60;;;5.30;99.10;;;;;;5017755;28;20527;-82
2021/11/06 08:16:55;;;;;;;1.13;1.03;;;5.30;99.10;;;;;;5018229;28;20942;-82
2021/11/06 08:19:25;;;;;;;2.65;1.17;;;5.30;99.10;;;;;;5017637;28;20241;-82
2021/11/06 08:21:51;;;;;;;1.25;1.15;;;5.20;99.10;;;;;;5017114;28;20166;-81
2021/11/06 08:24:21;;;;;;;1.17;0.80;;;5.20;99.10;;;;;;5018628;28;20175;-81
2021/11/06 08:26:47;;;;;;;8.90;1.15;;;5.30;99.10;;;;;;5016570;28;20167;-80
2021/11/06 08:29:13;;;;;;;4.00;1.75;;;5.30;99.10;;;;;;5016584;28;20214;-80
2021/11/06 08:31:40;;;;;;;1.63;1.20;;;5.30;99.10;;;;;;5015410;28;20171;-80
2021/11/06 08:34:05;;;;;;;3.90;1.35;;;5.30;99.10;;;;;;5015946;28;20182;-80
2021/11/06 08:36:31;;;;;;;1.30;1.20;;;5.30;99.10;;;;;;5015356;28;20457;-80
2021/11/06 08:38:57;;;;;;;1.07;0.77;;;5.40;99.10;;;;;;5015670;28;20509;-80
2021/11/06 08:41:23;;;;;;;1.47;1.37;;;5.50;99.10;;;;;;5015904;28;20468;-80
2021/11/06 08:43:49;;;;;;;1.52;1.42;;;5.50;99.10;;;;;;5016139;28;20450;-80
2021/11/06 08:46:15;;;;;;;3.03;2.43;;;5.70;99.10;;;;;;5015880;28;20745;-80
2021/11/06 08:48:41;;;;;;;4.37;1.17;;;5.70;99.10;;;;;;5015638;28;20441;-80
2021/11/06 08:51:06;;;;;;;1.47;1.43;;;5.70;99.10;;;;;;5016416;28;20942;-80
2021/11/06 08:53:32;;;;;;;2.40;1.23;;;5.80;99.10;;;;;;5015945;28;20417;-81
2021/11/06 08:55:58;;;;;;;1.48;1.23;;;5.80;99.10;;;;;;5016188;28;20417;-81
2021/11/06 08:58:24;;;;;;;2.90;1.40;;;5.90;99.10;;;;;;5015696;28;20293;-81
2021/11/06 09:00:50;;;;;;;0.90;0.80;;;6.10;99.10;;;;;;5015849;28;20414;-80
2021/11/06 09:03:19;;;;;;;0.70;0.60;;;6.20;99.10;;;;;;5015208;28;20406;-80
2021/11/06 09:05:50;;;;;;;2.38;1.73;;;6.30;99.10;;;;;;5015578;28;20175;-80
2021/11/06 09:08:18;;;;;;;2.53;1.23;;;6.30;99.10;;;;;;5015461;28;20229;-80
2021/11/06 09:10:45;;;;;;;13.65;2.55;;;6.30;99.10;;;;;;5016454;28;20212;-80
2021/11/06 09:13:11;;;;;;;1.90;1.70;;;6.30;99.10;;;;;;5015713;28;20170;-81
2021/11/06 09:15:37;;;;;;;7.85;2.10;;;6.30;99.10;;;;;;5032234;28;20174;-80
2021/11/06 09:18:03;;;;;;;2.50;2.22;;;6.30;99.10;;;;;;5016009;28;20207;-81
2021/11/06 09:20:29;;;;;;;1.83;0.80;;;6.30;99.10;;;;;;5014858;28;20395;-80
2021/11/06 09:22:55;;;;;;;6.90;3.40;;;6.30;99.10;;;;;;5014893;28;20426;-81
2021/11/06 09:25:22;;;;;;;2.60;1.23;;;6.40;99.10;;;;;;5014232;28;20167;-80
2021/11/06 09:27:48;;;;;;;2.85;1.15;;;6.50;99.10;;;;;;5015594;28;20449;-81
2021/11/06 09:30:14;;;;;;;7.65;2.72;;;6.50;99.10;;;;;;5014975;28;20202;-80
2021/11/06 09:32:41;;;;;;;1.67;1.50;;;6.50;99.10;;;;;;5014767;28;20265;-78
2021/11/06 09:35:08;;;;;;;6.18;2.17;;;6.60;99.10;;;;;;5014406;28;20244;-78
2021/11/06 09:37:35;;;;;;;4.35;2.20;;;6.70;99.10;;;;;;5014915;28;20272;-79
2021/11/06 09:40:01;;;;;;;3.53;2.50;;;6.80;99.10;;;;;;5015355;28;20179;-79
2021/11/06 09:42:26;;;;;;;3.85;1.80;;;6.90;99.10;;;;;;5014001;28;20585;-77
2021/11/06 09:44:53;;;;;;;1.97;1.87;;;7.00;99.10;;;;;;5012927;28;20246;-77
2021/11/06 09:47:20;;;;;;;3.53;1.40;;;7.00;99.10;;;;;;5012988;28;20195;-77
2021/11/06 09:49:47;;;;;;;1.23;1.15;;;7.10;99.10;;;;;;5012801;28;20167;-77
2021/11/06 09:52:13;;;;;;;3.45;2.28;;;7.10;99.10;;;;;;5013617;28;20246;-78
2021/11/06 09:54:40;;;;;;;4.53;2.78;;;7.20;99.10;;;;;;5014202;28;20248;-78
2021/11/06 09:57:06;;;;;;;3.38;2.58;;;7.10;99.10;;;;;;5013861;28;20225;-77
2021/11/06 09:59:33;;;;;;;2.15;1.98;;;7.20;99.10;;;;;;5013580;28;20174;-78
2021/11/06 10:02:01;;;;;;;4.72;2.65;;;7.40;99.10;;;;;;5013941;28;20647;-78
2021/11/06 10:04:29;;;;;;;1.77;1.55;;;7.40;99.10;;;;;;5013557;28;20176;-78
2021/11/06 10:06:58;;;;;;;6.78;2.50;;;7.40;98.30;;;;;;5013425;28;20202;-78
2021/11/06 10:09:24;;;;;;;6.80;2.47;;;7.40;98.60;;;;;;5013506;28;20185;-78
2021/11/06 10:11:52;;;;;;;3.60;1.67;;;7.40;99.10;;;;;;5013719;28;20265;-78
2021/11/06 10:14:24;;;;;;;2.97;2.67;;;7.40;99.10;;;;;;5013432;28;20185;-78
2021/11/06 10:17:00;;;;;;;7.03;3.63;;;7.50;99.10;;;;;;5013554;28;20167;-77
2021/11/06 10:19:39;;;;;;;2.33;2.15;;;7.50;98.80;;;;;;5013437;28;20201;-77
2021/11/06 10:22:15;;;;;;;5.60;3.55;;;7.50;98.60;;;;;;5013102;28;20162;-78
2021/11/06 10:24:47;;;;;;;3.85;2.47;;;7.40;98.90;;;;;;5013213;28;20174;-78
2021/11/06 10:27:19;;;;;;;2.75;1.77;;;7.40;98.60;;;;;;5013107;28;20190;-77
2021/11/06 10:30:02;;;;;;;9.82;2.58;;;7.40;98.60;;;;;;5013309;28;20186;-77
2021/11/06 10:32:28;;;;;;;3.25;2.22;;;7.40;99.10;;;;;;5013178;28;20167;-78
2021/11/06 10:34:53;;;;;;;11.30;4.77;;;7.30;99.10;;;;;;5012399;28;20198;-77
2021/11/06 10:37:20;;;;;;;14.07;2.63;;;7.40;99.10;;;;;;5013188;28;20426;-78
2021/11/06 10:39:58;;;;;;;4.45;4.00;;;7.50;99.10;;;;;;5013172;28;20455;-78
2021/11/06 10:42:26;;;;;;;9.68;2.08;;;7.50;99.10;;;;;;5013237;28;20529;-78
2021/11/06 10:45:11;;;;;;;12.25;3.08;;;7.60;98.90;;;;;;5012845;28;20708;-78
2021/11/06 10:48:01;;;;;;;8.40;3.95;;;7.60;98.10;;;;;;5013084;28;20686;-78
2021/11/06 10:50:39;;;;;;;5.20;2.13;;;7.70;98.50;;;;;;5013442;28;20178;-78
2021/11/06 10:53:06;;;;;;;8.10;2.10;;;7.70;98.60;;;;;;5013299;28;20217;-77
2021/11/06 10:55:37;;;;;;;11.13;4.35;;;7.80;98.90;;;;;;5013223;28;20182;-78
2021/11/06 10:58:24;;;;;;;8.07;3.15;;;7.90;98.50;;;;;;5013552;28;20198;-78
2021/11/06 11:01:00;;;;;;;5.30;2.65;;;8.00;97.80;;;;;;5013267;28;20155;-79
2021/11/06 11:03:31;;;;;;;3.92;2.75;;;8.10;97.70;;;;;;5013932;28;20163;-79
2021/11/06 11:05:59;;;;;;;4.80;2.08;;;8.10;97.10;;;;;;5014781;28;20167;-81
2021/11/06 11:08:25;;;;;;;1.40;1.30;;;8.10;97.10;;;;;;5015261;28;20206;-80
2021/11/06 11:10:52;;;;;;;3.35;2.45;;;8.10;97.50;;;;;;5015094;28;20549;-80
2021/11/06 11:13:23;;;;;;;7.03;3.33;;;8.10;97.50;;;;;;5016732;28;20181;-79
2021/11/06 11:15:54;;;;;;;4.72;3.45;;;8.10;97.50;;;;;;5015137;28;20241;-80
2021/11/06 11:18:31;;;;;;;4.10;2.95;;;8.20;97.10;;;;;;5014080;28;20202;-80
2021/11/06 11:21:17;;;;;;;8.57;3.20;;;8.20;97.40;;;;;;5015166;28;20254;-81
2021/11/06 11:23:45;;;;;;;8.70;3.80;;;8.20;97.10;;;;;;5014490;28;20181;-80
2021/11/06 11:26:13;;;;;;;5.70;1.83;;;8.30;96.80;;;;;;5016484;28;20173;-80
2021/11/06 11:28:39;;;;;;;3.03;1.75;;;8.30;96.70;;;;;;5015038;28;20786;-80
2021/11/06 11:31:06;;;;;;;5.40;2.88;;;8.20;96.40;;;;;;5014325;28;20206;-81
2021/11/06 11:33:38;;;;;;;9.85;3.38;;;8.10;97.10;;;;;;5014929;28;20175;-81
2021/11/06 11:36:06;;;;;;;3.28;2.38;;;8.10;97.10;;;;;;5015298;28;20186;-81
2021/11/06 11:38:33;;;;;;;6.55;3.00;;;8.00;97.70;;;;;;5014425;28;20202;-81
2021/11/06 11:41:39;;;;;;;3.15;2.25;;;8.10;98.40;;;;;;5014075;28;20269;-80
2021/11/06 11:44:50;;;;;;;5.28;3.30;;;8.20;98.20;;;;;;5013585;28;20174;-81
2021/11/06 11:47:25;;;;;;;6.53;4.32;;;8.40;97.90;;;;;;5015086;28;20198;-80
2021/11/06 11:49:53;;;;;;;13.48;4.82;;;8.50;96.80;;;;;;5017219;28;20155;-80
2021/11/06 11:52:27;;;;;;;4.53;2.70;;;8.60;96.40;;;;;;5017572;28;20202;-80
2021/11/06 11:55:05;;;;;;;6.63;3.47;;;8.60;96.00;;;;;;5022693;28;20158;-79
2021/11/06 11:57:33;;;;;;;11.30;5.30;;;8.60;95.90;;;;;;5018741;28;20225;-81
2021/11/06 11:59:59;;;;;;;6.72;2.60;;;8.70;96.30;;;;;;5017507;28;20544;-81
2021/11/06 12:02:29;;;;;;;7.15;3.90;;;8.80;95.70;;;;;;5017850;28;20171;-80
2021/11/06 12:05:40;;;;;;;14.23;3.60;;;8.80;95.70;;;;;;5017114;28;20182;-82
2021/11/06 12:08:09;;;;;;;5.38;3.33;;;8.90;94.90;;;;;;5011491;28;20202;-81
2021/11/06 12:10:43;;;;;;;14.95;4.85;;;8.90;95.10;;;;;;5017101;28;20185;-81
2021/11/06 12:13:33;;;;;;;12.80;3.50;;;9.00;95.70;;;;;;5016690;28;20181;-80
2021/11/06 12:16:08;;;;;;;13.43;6.30;;;8.90;95.30;;;;;;5009946;28;20191;-80
2021/11/06 12:18:34;;;;;;;9.20;3.72;;;9.00;95.30;;;;;;5017603;28;20197;-80
2021/11/06 12:21:16;;;;;;;9.50;4.57;;;9.00;94.60;;;;;;5017259;28;20171;-81
2021/11/06 12:24:00;;;;;;;12.25;7.07;;;8.90;95.00;;;;;;5018163;28;20445;-81
2021/11/06 12:26:31;;;;;;;5.55;3.67;;;8.90;94.90;;;;;;5017037;28;20163;-81
2021/11/06 12:29:03;;;;;;;10.30;4.60;;;8.90;95.20;;;;;;5017050;28;20194;-81
2021/11/06 12:31:47;;;;;;;6.60;3.60;;;9.00;95.30;;;;;;5017547;28;20178;-81
2021/11/06 12:34:46;;;;;;;8.75;4.13;;;9.10;95.10;;;;;;5017132;28;20166;-81
2021/11/06 12:37:33;;;;;;;12.40;4.82;;;9.10;95.00;;;;;;5005197;28;20206;-81
2021/11/06 12:40:01;;;;;;;14.02;4.65;;;9.20;94.70;;;;;;5016770;28;20300;-81
2021/11/06 12:42:29;;;;;;;9.43;3.63;;;9.30;94.40;;;;;;5017129;28;20167;-81
2021/11/06 12:44:59;;;;;;;12.75;4.70;;;9.30;94.30;;;;;;5016873;28;20174;-81
2021/11/06 12:47:27;;;;;;;14.70;5.20;;;9.30;94.30;;;;;;5016623;28;20194;-80
2021/11/06 12:49:53;;;;;;;11.98;4.45;;;9.20;94.50;;;;;;5016996;28;20177;-80
2021/11/06 12:52:25;;;;;;;14.15;7.93;;;9.20;94.80;;;;;;5017938;28;20179;-80
2021/11/06 12:55:01;;;;;;;5.53;3.38;;;9.30;94.90;;;;;;5018080;28;20163;-83
2021/11/06 12:57:28;;;;;;;4.90;3.55;;;9.30;95.10;;;;;;5017058;28;20201;-81
2021/11/06 12:59:54;;;;;;;5.72;2.88;;;9.40;94.40;;;;;;5017720;28;20261;-81